createdAt,value
2023-05-25T05:04:12.292Z,4.75
2023-05-25T05:06:39.633Z,4.45
2023-05-25T05:09:06.786Z,4.45
2023-05-25T05:11:33.768Z,3.83
2023-05-25T05:14:00.862Z,4.55
2023-05-25T05:16:32.089Z,4.28
2023-05-25T05:18:59.091Z,4.15
2023-05-25T05:21:26.191Z,3.30
2023-05-25T05:23:53.347Z,3.50
2023-05-25T05:26:21.598Z,4.03
2023-05-25T05:28:48.684Z,3.22
2023-05-25T05:31:17.785Z,3.80
2023-05-25T05:33:44.826Z,3.20
2023-05-25T05:36:11.803Z,3.03
2023-05-25T05:38:40.780Z,3.60
2023-05-25T05:41:13.896Z,3.28
2023-05-25T05:43:42.805Z,3.50
2023-05-25T05:46:11.250Z,2.83
2023-05-25T05:48:38.724Z,3.25
2023-05-25T05:51:06.627Z,2.97
2023-05-25T05:53:35.667Z,5.88
2023-05-25T05:56:07.576Z,4.18
2023-05-25T05:58:34.645Z,4.18
2023-05-25T06:01:02.443Z,3.58
2023-05-25T06:03:29.577Z,3.35
2023-05-25T06:05:56.899Z,3.03
2023-05-25T06:08:23.921Z,2.85
2023-05-25T06:10:51.097Z,3.00
2023-05-25T06:13:18.377Z,4.15
2023-05-25T06:15:45.777Z,3.10
2023-05-25T06:18:13.244Z,3.38
2023-05-25T06:20:40.248Z,3.90
2023-05-25T06:23:08.592Z,3.80
2023-05-25T06:25:35.714Z,4.18
2023-05-25T06:28:02.912Z,3.83
2023-05-25T06:30:30.042Z,5.28
2023-05-25T06:32:57.665Z,4.93
2023-05-25T06:35:24.917Z,5.10
2023-05-25T06:37:52.059Z,4.40
2023-05-25T06:40:19.679Z,4.65
2023-05-25T06:42:46.958Z,4.18
2023-05-25T06:45:14.145Z,3.78
2023-05-25T06:47:41.341Z,4.03
2023-05-25T06:50:09.498Z,3.00
2023-05-25T06:52:36.965Z,3.38
2023-05-25T06:55:04.525Z,3.38
2023-05-25T06:57:31.610Z,3.78
2023-05-25T06:59:58.670Z,4.20
2023-05-25T07:02:25.806Z,4.05
2023-05-25T07:04:53.132Z,4.00
2023-05-25T07:07:20.316Z,3.75
2023-05-25T07:09:47.882Z,4.30
2023-05-25T07:12:15.461Z,3.13
2023-05-25T07:14:42.841Z,3.72
2023-05-25T07:17:10.702Z,5.30
2023-05-25T07:19:37.808Z,3.95
2023-05-25T07:22:05.230Z,4.53
2023-05-25T07:24:32.732Z,4.90
2023-05-25T07:26:59.852Z,4.65
2023-05-25T07:29:26.956Z,4.78
2023-05-25T07:31:54.186Z,4.28
2023-05-25T07:34:21.463Z,3.70
2023-05-25T07:36:48.701Z,4.43
2023-05-25T07:39:16.273Z,3.90
2023-05-25T07:41:43.425Z,3.72
2023-05-25T07:44:10.655Z,4.30
2023-05-25T07:46:37.829Z,3.92
2023-05-25T07:49:06.608Z,3.50
2023-05-25T07:51:33.734Z,3.22
2023-05-25T07:54:00.943Z,3.28
2023-05-25T10:16:25.579Z,5.30
2023-05-25T10:19:00.994Z,4.33
2023-05-25T10:21:32.036Z,4.72
2023-05-25T10:26:39.292Z,4.63
2023-05-25T10:29:08.052Z,4.45
2023-05-25T10:31:38.034Z,3.88
2023-05-25T10:34:05.674Z,4.45
2023-05-25T10:36:35.565Z,3.85
2023-05-25T10:39:03.556Z,4.00
2023-05-25T10:41:30.761Z,5.43
2023-05-25T10:43:58.233Z,8.43
2023-05-25T10:46:26.436Z,11.63
2023-05-25T10:48:53.850Z,11.88
2023-05-25T10:51:21.623Z,14.27
2023-05-25T10:54:00.312Z,15.27
2023-05-25T10:56:27.447Z,16.15
2023-05-25T10:58:54.680Z,17.98
2023-05-25T11:01:21.958Z,14.85
2023-05-25T11:03:52.044Z,16.23
2023-05-25T11:06:22.006Z,16.17
2023-05-25T11:09:07.002Z,15.43
2023-05-25T11:11:43.245Z,15.75
2023-05-25T11:14:22.430Z,15.95
2023-05-25T11:17:16.158Z,15.10
2023-05-25T11:19:46.741Z,13.13
2023-05-25T11:22:20.856Z,14.20
2023-05-25T11:24:49.162Z,13.23
2023-05-25T11:27:16.608Z,11.38
2023-05-25T11:29:44.169Z,10.40
2023-05-25T11:32:15.482Z,10.52
2023-05-25T11:34:47.066Z,9.70
2023-05-25T11:37:21.507Z,7.82
2023-05-25T11:39:50.109Z,7.07
2023-05-25T11:42:18.278Z,6.80
2023-05-25T11:44:46.135Z,6.97
2023-05-25T11:47:14.896Z,6.82
2023-05-25T11:49:44.582Z,5.75
2023-05-25T11:52:13.027Z,6.03
2023-05-25T11:54:43.648Z,5.38
2023-05-25T11:57:23.091Z,5.22
2023-05-25T11:59:51.582Z,4.93
2023-05-25T12:02:19.669Z,5.20
2023-05-25T12:04:58.817Z,5.38
2023-05-25T12:07:27.646Z,4.40
2023-05-25T12:10:08.698Z,4.53
2023-05-25T12:12:49.795Z,4.25
2023-05-25T12:15:27.524Z,4.63
2023-05-25T12:17:55.093Z,4.20
2023-05-25T12:20:22.697Z,4.72
2023-05-25T12:22:50.109Z,3.45
2023-05-25T12:25:24.992Z,4.70
2023-05-25T12:28:12.616Z,3.97
2023-05-25T12:30:39.918Z,4.45
2023-05-25T12:33:08.102Z,3.47
2023-05-25T12:35:49.939Z,4.35
2023-05-25T12:38:22.162Z,3.55
2023-05-25T12:41:05.735Z,3.88
2023-05-25T12:43:44.199Z,4.22
2023-05-25T12:46:11.522Z,7.47
2023-05-25T12:48:38.680Z,6.28
2023-05-25T12:51:06.021Z,4.97
2023-05-25T12:53:49.920Z,5.38
2023-05-25T12:56:17.148Z,4.60
2023-05-25T12:58:46.098Z,4.88
2023-05-25T13:01:13.484Z,5.00
2023-05-25T13:03:40.637Z,4.53
2023-05-25T13:06:07.965Z,4.35
2023-05-25T13:08:35.038Z,4.10
2023-05-25T13:11:04.025Z,4.00
2023-05-25T13:13:31.095Z,3.85
2023-05-25T13:15:58.771Z,3.92
2023-05-25T13:18:25.946Z,4.38
2023-05-25T13:20:56.124Z,4.45
2023-05-25T13:25:50.977Z,4.80
2023-05-25T13:28:18.095Z,5.35
2023-05-25T13:30:45.535Z,5.13
2023-05-25T13:33:12.954Z,4.40
2023-05-25T13:35:58.613Z,3.60
2023-05-25T13:38:26.081Z,4.15
2023-05-25T13:40:53.264Z,3.97
2023-05-25T13:43:20.381Z,3.92
2023-05-25T13:45:48.238Z,4.38
2023-05-25T13:48:15.308Z,4.70
2023-05-25T13:50:43.178Z,4.25
2023-05-25T13:53:10.467Z,4.95
2023-05-25T13:55:38.671Z,4.80
2023-05-25T13:58:06.349Z,6.00
2023-05-25T14:00:33.686Z,4.93
2023-05-25T14:03:01.133Z,3.95
2023-05-25T14:05:29.206Z,4.45
2023-05-25T14:07:57.112Z,4.95
2023-05-25T14:10:24.407Z,4.75
2023-05-25T14:12:51.545Z,4.35
2023-05-25T14:15:18.705Z,5.13
2023-05-25T14:17:45.940Z,5.05
2023-05-25T14:20:16.436Z,4.97
2023-05-25T14:22:43.526Z,4.20
2023-05-25T14:25:10.780Z,3.88
2023-05-25T14:27:37.872Z,4.25
2023-05-25T14:30:07.567Z,3.83
2023-05-25T14:32:34.877Z,4.70
2023-05-25T14:35:01.971Z,4.07
2023-05-25T14:37:29.029Z,4.00
2023-05-25T14:39:56.208Z,4.35
2023-05-25T14:42:23.796Z,3.90
2023-05-25T14:44:51.104Z,3.58
2023-05-25T14:47:18.588Z,3.45
2023-05-25T14:49:49.245Z,4.13
2023-05-25T14:52:16.623Z,4.03
2023-05-25T14:54:45.330Z,3.33
2023-05-25T14:57:12.741Z,3.88
2023-05-25T14:59:39.997Z,3.65
2023-05-25T15:02:07.404Z,4.20
2023-05-25T15:04:34.877Z,3.83
2023-05-25T15:07:02.181Z,3.75
2023-05-25T15:09:29.302Z,4.00
2023-05-25T15:11:56.678Z,4.30
2023-05-25T15:14:24.015Z,4.38
2023-05-25T15:16:51.341Z,5.38
2023-05-25T15:19:18.552Z,4.72
2023-05-25T15:21:46.068Z,5.68
2023-05-25T15:24:17.201Z,5.05
2023-05-25T15:26:45.128Z,4.40
2023-05-25T15:29:12.503Z,3.88
2023-05-25T15:31:39.688Z,4.60
2023-05-25T15:34:07.005Z,3.97
2023-05-25T15:36:34.345Z,4.07
2023-05-25T15:39:01.847Z,4.43
2023-05-25T15:41:29.142Z,5.15
2023-05-25T15:44:01.398Z,5.50
2023-05-25T15:46:28.859Z,4.68
2023-05-25T15:48:56.375Z,4.93
2023-05-25T15:51:23.483Z,5.13
2023-05-25T15:53:50.720Z,4.90
2023-05-25T15:56:17.931Z,4.53
2023-05-25T15:58:49.289Z,5.10
2023-05-25T16:01:16.706Z,5.00
2023-05-25T16:03:45.124Z,4.90
2023-05-25T16:06:12.320Z,5.78
2023-05-25T16:08:39.440Z,5.30
2023-05-25T16:11:06.751Z,4.30
2023-05-25T16:13:33.887Z,5.18
2023-05-25T16:16:01.116Z,5.05
2023-05-25T16:18:28.186Z,5.60
2023-05-25T16:20:58.328Z,4.30
2023-05-25T16:23:25.850Z,4.77
2023-05-25T16:25:53.572Z,6.15
2023-05-25T16:28:20.880Z,6.13
2023-05-25T16:30:48.052Z,5.50
2023-05-25T16:33:15.266Z,7.90
2023-05-25T16:35:42.525Z,6.70
2023-05-25T16:38:09.652Z,6.57
2023-05-25T16:40:37.574Z,6.20
2023-05-25T16:43:04.674Z,6.28
2023-05-25T16:45:31.869Z,5.95
2023-05-25T16:47:59.076Z,5.88
2023-05-25T16:50:26.243Z,5.82
2023-05-25T16:52:53.342Z,6.13
2023-05-25T16:55:20.729Z,5.80
2023-05-25T16:57:47.820Z,5.70
2023-05-25T17:00:15.490Z,5.05
2023-05-25T17:02:42.632Z,5.28
2023-05-25T17:05:10.231Z,4.43
2023-05-25T17:07:38.172Z,4.70
2023-05-25T17:10:07.392Z,4.88
2023-05-25T17:12:34.768Z,5.18
2023-05-25T17:15:02.020Z,4.90
2023-05-25T17:17:29.278Z,3.83
2023-05-25T17:19:56.537Z,4.72
2023-05-25T17:22:23.655Z,4.45
2023-05-25T17:24:51.976Z,4.15
2023-05-25T17:27:19.021Z,4.43
2023-05-25T17:29:46.305Z,4.47
2023-05-25T17:32:13.460Z,4.15
2023-05-25T17:34:40.756Z,3.47
2023-05-25T17:37:07.885Z,5.60
2023-05-25T17:39:35.164Z,5.25
2023-05-25T17:42:03.748Z,5.15
2023-05-25T17:44:30.778Z,5.40
2023-05-25T17:46:57.880Z,4.40
2023-05-25T17:49:24.866Z,4.95
2023-05-25T17:51:52.198Z,5.65
2023-05-25T17:54:25.996Z,4.78
2023-05-25T17:56:53.769Z,4.30
2023-05-25T17:59:20.954Z,4.68
2023-05-25T18:01:48.156Z,4.28
2023-05-25T18:04:15.408Z,4.50
2023-05-25T18:06:42.706Z,4.30
2023-05-25T18:09:09.999Z,4.45
2023-05-25T18:11:37.233Z,4.22
2023-05-25T18:14:08.302Z,4.97
2023-05-25T18:19:08.820Z,5.53
2023-05-25T18:21:39.779Z,4.18
2023-05-25T18:26:36.386Z,5.13
2023-05-25T18:29:03.698Z,9.18
2023-05-25T18:31:32.548Z,17.20
2023-05-25T18:34:02.676Z,62.10
2023-05-25T18:36:29.866Z,177.30
2023-05-25T18:38:56.975Z,179.93
2023-05-25T18:41:24.829Z,276.45
2023-05-25T18:43:52.437Z,283.02
2023-05-25T18:46:19.990Z,250.23
2023-05-25T18:48:47.099Z,233.93
2023-05-25T18:51:16.152Z,217.85
2023-05-25T18:53:43.761Z,200.52
2023-05-25T18:56:11.537Z,187.90
2023-05-25T18:58:38.652Z,179.32
2023-05-25T19:01:05.693Z,177.40
2023-05-25T19:03:32.870Z,158.60
2023-05-25T19:06:00.183Z,152.18
2023-05-25T19:08:27.264Z,149.25
2023-05-25T19:10:54.539Z,134.52
2023-05-25T19:13:23.565Z,129.18
2023-05-25T19:15:51.309Z,115.32
2023-05-25T19:18:18.801Z,114.10
2023-05-25T19:20:46.288Z,102.88
2023-05-25T19:23:13.678Z,106.72
2023-05-25T19:25:40.913Z,102.45
2023-05-25T19:28:08.217Z,96.00
2023-05-25T19:30:36.475Z,88.53
2023-05-25T19:33:03.980Z,86.88
2023-05-25T19:35:31.492Z,80.32
2023-05-25T19:37:59.975Z,78.00
2023-05-25T19:40:29.331Z,67.93
2023-05-25T19:42:56.686Z,61.63
2023-05-25T19:45:24.285Z,58.72
2023-05-25T19:47:52.501Z,53.33
2023-05-25T19:50:19.958Z,50.15
2023-05-25T19:52:47.396Z,48.08
2023-05-25T19:55:15.123Z,46.17
2023-05-25T19:57:43.685Z,42.13
2023-05-25T20:00:21.232Z,39.97
2023-05-25T20:02:54.107Z,35.55
2023-05-25T20:05:21.437Z,17.52
2023-05-25T20:07:50.877Z,17.52
2023-05-25T20:10:18.340Z,17.00
2023-05-25T20:12:45.479Z,17.45
2023-05-25T20:15:12.923Z,18.52
2023-05-25T20:17:40.280Z,15.15
2023-05-25T20:20:07.813Z,16.52
2023-05-25T20:22:35.329Z,16.35
2023-05-25T20:25:02.981Z,15.02
2023-05-25T20:27:30.408Z,15.15
2023-05-25T20:29:58.130Z,13.13
2023-05-25T20:32:25.595Z,11.65
2023-05-25T20:34:53.021Z,11.25
2023-05-25T20:37:20.568Z,9.20
2023-05-25T20:39:47.868Z,9.18
2023-05-25T20:42:15.260Z,8.55
2023-05-25T20:44:42.920Z,8.23
2023-05-25T20:47:10.491Z,8.18
2023-05-25T20:49:37.875Z,7.88
2023-05-25T20:52:05.721Z,7.45
2023-05-25T20:54:33.621Z,7.43
2023-05-25T20:57:04.220Z,6.13
2023-05-25T20:59:32.291Z,6.18
2023-05-25T21:01:59.882Z,6.32
2023-05-25T21:04:28.125Z,5.93
2023-05-25T21:06:56.642Z,6.53
2023-05-25T21:09:24.135Z,5.40
2023-05-25T21:11:51.374Z,6.47
2023-05-25T21:14:18.887Z,6.15
2023-05-25T21:16:46.540Z,5.47
2023-05-25T21:19:14.457Z,5.70
2023-05-25T21:21:42.013Z,5.80
2023-05-25T21:24:09.301Z,5.38
2023-05-25T21:26:38.016Z,5.78
2023-05-25T21:29:05.334Z,5.95
2023-05-25T21:31:32.586Z,4.63
2023-05-25T21:34:00.214Z,5.78
2023-05-25T21:36:27.819Z,4.35
2023-05-25T21:38:55.068Z,4.43
2023-05-25T21:41:22.375Z,4.43
2023-05-25T21:43:49.637Z,4.75
2023-05-25T21:46:17.805Z,4.55
2023-05-25T21:48:45.551Z,4.57
2023-05-25T21:51:12.622Z,4.50
2023-05-25T21:53:39.920Z,3.97
2023-05-25T21:56:07.017Z,4.20
2023-05-25T21:58:34.385Z,3.85
2023-05-25T22:01:01.671Z,3.92
2023-05-25T22:03:29.108Z,3.65
2023-05-25T22:05:58.909Z,4.25
2023-05-25T22:08:26.077Z,4.22
2023-05-25T22:10:53.115Z,3.30
2023-05-25T22:13:20.221Z,3.67
2023-05-25T22:15:47.455Z,3.67
2023-05-25T22:18:14.782Z,3.75
2023-05-25T22:20:42.466Z,3.85
2023-05-25T22:23:12.245Z,3.90
2023-05-25T22:25:39.462Z,3.65
2023-05-25T22:28:06.944Z,3.80
2023-05-25T22:30:34.071Z,3.65
2023-05-25T22:33:01.209Z,3.10
2023-05-25T22:35:28.502Z,3.63
2023-05-25T22:37:55.512Z,3.20
2023-05-25T22:40:22.762Z,3.17
2023-05-25T22:42:50.711Z,3.10
2023-05-25T22:45:18.758Z,3.58
2023-05-25T22:47:46.136Z,3.58
2023-05-25T22:50:13.725Z,3.28
2023-05-25T22:52:41.604Z,3.35
2023-05-25T22:55:10.028Z,3.30
2023-05-25T22:57:37.513Z,3.50
2023-05-25T23:00:05.173Z,2.92
2023-05-25T23:02:32.381Z,3.35
2023-05-25T23:04:59.517Z,3.17
2023-05-25T23:07:26.546Z,3.00
2023-05-25T23:09:53.586Z,2.85
2023-05-25T23:12:20.654Z,3.38
2023-05-25T23:14:47.712Z,3.40
2023-05-25T23:17:14.738Z,3.20
2023-05-25T23:19:41.811Z,3.17
2023-05-25T23:22:08.853Z,3.42
2023-05-25T23:24:35.952Z,3.33
2023-05-25T23:27:03.289Z,2.92
2023-05-25T23:29:30.292Z,3.33
2023-05-25T23:31:57.377Z,2.80
2023-05-25T23:34:24.359Z,3.28
2023-05-25T23:36:54.522Z,2.80
2023-05-25T23:39:21.921Z,3.20
2023-05-25T23:41:48.953Z,2.75
2023-05-25T23:44:16.457Z,3.25
2023-05-25T23:46:43.540Z,3.03
2023-05-25T23:49:10.646Z,2.63
2023-05-25T23:51:37.964Z,3.15
2023-05-25T23:54:05.152Z,3.10
2023-05-25T23:56:32.970Z,2.92
2023-05-25T23:59:00.013Z,3.00
